createdAt,value
2023-01-29T00:00:26.255Z,24.40
2023-01-29T00:02:53.964Z,22.98
2023-01-29T00:05:28.027Z,23.15
2023-01-29T00:07:56.202Z,26.42
2023-01-29T00:10:24.559Z,24.60
2023-01-29T00:12:52.691Z,21.42
2023-01-29T00:15:20.896Z,25.58
2023-01-29T00:17:50.017Z,22.70
2023-01-29T00:20:18.768Z,24.10
2023-01-29T00:22:46.698Z,23.90
2023-01-29T00:25:14.408Z,27.13
2023-01-29T00:27:42.137Z,25.52
2023-01-29T00:30:12.832Z,26.55
2023-01-29T00:32:40.747Z,27.15
2023-01-29T00:35:10.802Z,27.88
2023-01-29T00:37:38.651Z,24.63
2023-01-29T00:40:07.477Z,24.88
2023-01-29T00:42:52.841Z,27.20
2023-01-29T00:45:20.511Z,31.58
2023-01-29T00:47:48.303Z,25.55
2023-01-29T00:50:17.783Z,25.13
2023-01-29T00:52:45.900Z,26.00
2023-01-29T00:55:13.889Z,25.55
2023-01-29T00:57:41.624Z,27.95
2023-01-29T01:00:14.666Z,27.52
2023-01-29T01:03:00.240Z,26.80
2023-01-29T01:05:29.523Z,26.00
2023-01-29T01:07:59.238Z,25.67
2023-01-29T01:10:29.502Z,25.38
2023-01-29T01:12:59.750Z,29.75
2023-01-29T01:15:29.371Z,29.60
2023-01-29T01:17:58.252Z,27.30
2023-01-29T01:20:26.620Z,26.27
2023-01-29T01:22:56.323Z,32.15
2023-01-29T01:25:25.138Z,28.98
2023-01-29T01:27:53.668Z,30.40
2023-01-29T01:30:21.839Z,31.40
2023-01-29T01:32:49.986Z,33.08
2023-01-29T01:35:18.067Z,29.42
2023-01-29T01:37:45.790Z,28.75
2023-01-29T01:40:21.254Z,30.02
2023-01-29T01:42:50.176Z,32.00
2023-01-29T01:45:25.766Z,28.58
2023-01-29T01:47:57.519Z,25.40
2023-01-29T01:50:29.764Z,27.10
2023-01-29T01:53:03.555Z,29.25
2023-01-29T01:55:35.549Z,30.88
2023-01-29T01:58:10.377Z,27.92
2023-01-29T02:00:39.632Z,30.42
2023-01-29T02:03:27.341Z,26.58
2023-01-29T02:09:06.079Z,28.55
2023-01-29T02:11:35.131Z,29.48
2023-01-29T02:14:03.598Z,32.30
2023-01-29T02:16:31.509Z,28.40
2023-01-29T02:18:59.228Z,28.52
2023-01-29T02:21:52.046Z,28.05
2023-01-29T02:25:09.941Z,26.40
2023-01-29T02:28:10.261Z,30.15
2023-01-29T02:30:44.132Z,29.45
2023-01-29T02:33:21.381Z,27.00
2023-01-29T02:35:57.211Z,31.17
2023-01-29T02:38:31.741Z,26.35
2023-01-29T02:41:03.174Z,29.45
2023-01-29T02:43:38.552Z,29.58
2023-01-29T02:46:16.973Z,28.20
2023-01-29T02:48:54.972Z,28.38
2023-01-29T02:51:31.238Z,28.45
2023-01-29T02:54:04.687Z,31.25
2023-01-29T02:56:39.772Z,26.60
2023-01-29T02:59:11.092Z,28.60
2023-01-29T03:01:47.061Z,29.67
2023-01-29T03:04:21.004Z,28.15
2023-01-29T03:06:54.515Z,31.92
2023-01-29T03:09:29.385Z,26.77
2023-01-29T03:12:20.002Z,29.67
2023-01-29T03:15:09.076Z,31.40
2023-01-29T03:17:42.981Z,29.10
2023-01-29T03:20:15.733Z,28.10
2023-01-29T03:22:48.979Z,28.60
2023-01-29T03:25:37.227Z,28.95
2023-01-29T03:28:24.958Z,29.52
2023-01-29T03:33:46.624Z,29.42
2023-01-29T03:36:19.615Z,31.33
2023-01-29T03:38:47.372Z,31.33
2023-01-29T03:41:24.278Z,32.80
2023-01-29T03:44:00.648Z,29.83
2023-01-29T03:46:34.812Z,27.17
2023-01-29T03:49:13.162Z,28.92
2023-01-29T03:51:54.653Z,28.27
2023-01-29T03:54:27.347Z,30.30
2023-01-29T03:57:01.266Z,31.88
2023-01-29T03:59:38.781Z,30.98
2023-01-29T04:02:10.101Z,25.85
2023-01-29T04:04:42.543Z,29.45
2023-01-29T04:07:13.519Z,31.65
2023-01-29T04:09:47.534Z,29.42
2023-01-29T04:12:19.717Z,31.05
2023-01-29T04:14:48.682Z,27.70
2023-01-29T04:17:20.878Z,30.52
2023-01-29T04:19:50.084Z,28.13
2023-01-29T04:22:21.262Z,27.88
2023-01-29T04:24:50.609Z,27.25
2023-01-29T04:27:28.648Z,27.83
2023-01-29T04:30:07.044Z,32.40
2023-01-29T04:32:48.045Z,30.92
2023-01-29T04:35:30.686Z,26.50
2023-01-29T04:38:07.455Z,28.63
2023-01-29T04:40:43.534Z,27.33
2023-01-29T04:43:19.164Z,27.27
2023-01-29T04:46:00.370Z,26.70
2023-01-29T04:48:31.675Z,33.70
2023-01-29T04:51:09.791Z,29.98
2023-01-29T04:53:42.498Z,28.48
2023-01-29T04:56:17.148Z,27.92
2023-01-29T04:58:49.918Z,27.55
2023-01-29T05:01:20.268Z,29.63
2023-01-29T05:03:51.276Z,28.10
2023-01-29T05:06:22.180Z,29.58
2023-01-29T05:08:52.199Z,28.30
2023-01-29T05:11:21.406Z,28.88
2023-01-29T05:13:50.021Z,27.77
2023-01-29T05:16:21.956Z,27.88
2023-01-29T05:18:49.781Z,27.08
2023-01-29T05:21:17.560Z,30.88
2023-01-29T05:23:53.361Z,28.23
2023-01-29T05:26:39.175Z,29.45
2023-01-29T05:29:07.007Z,30.38
2023-01-29T05:31:34.703Z,28.70
2023-01-29T05:34:02.436Z,29.05
2023-01-29T05:36:30.697Z,31.52
2023-01-29T05:38:59.819Z,33.50
2023-01-29T05:41:27.609Z,29.27
2023-01-29T05:43:55.332Z,30.23
2023-01-29T05:46:23.074Z,29.30
2023-01-29T05:48:53.650Z,28.25
2023-01-29T05:51:21.380Z,28.70
2023-01-29T05:53:49.121Z,32.42
2023-01-29T05:56:18.236Z,29.67
2023-01-29T05:58:45.980Z,29.48
2023-01-29T06:01:16.188Z,30.95
2023-01-29T06:03:44.248Z,30.27
2023-01-29T06:06:12.268Z,26.88
2023-01-29T06:08:40.262Z,33.20
2023-01-29T06:11:10.422Z,30.52
2023-01-29T06:13:39.807Z,27.73
2023-01-29T06:16:08.545Z,27.85
2023-01-29T06:18:36.913Z,28.58
2023-01-29T06:21:05.955Z,27.60
2023-01-29T06:23:34.185Z,26.48
2023-01-29T06:26:02.161Z,27.88
2023-01-29T06:28:30.258Z,27.35
2023-01-29T06:31:11.447Z,27.20
2023-01-29T06:33:44.127Z,31.08
2023-01-29T06:36:12.061Z,29.42
2023-01-29T06:38:39.731Z,30.58
2023-01-29T06:41:13.525Z,30.73
2023-01-29T06:43:41.231Z,29.90
2023-01-29T06:46:10.269Z,25.88
2023-01-29T06:48:38.138Z,28.65
2023-01-29T06:51:07.912Z,33.30
2023-01-29T06:53:36.914Z,29.45
2023-01-29T06:56:05.356Z,27.33
2023-01-29T06:58:33.254Z,28.45
2023-01-29T07:01:04.937Z,29.23
2023-01-29T07:03:34.336Z,27.90
2023-01-29T07:06:02.443Z,27.20
2023-01-29T07:08:30.126Z,28.75
2023-01-29T07:11:00.895Z,28.83
2023-01-29T07:13:28.899Z,27.75
2023-01-29T07:15:59.591Z,27.90
2023-01-29T07:18:27.443Z,29.35
2023-01-29T07:20:57.162Z,29.40
2023-01-29T07:23:25.413Z,30.73
2023-01-29T07:25:53.149Z,27.50
2023-01-29T07:28:21.451Z,28.77
2023-01-29T07:30:49.334Z,28.13
2023-01-29T07:33:17.063Z,26.90
2023-01-29T07:35:44.805Z,28.17
2023-01-29T07:38:13.899Z,32.35
2023-01-29T07:40:41.640Z,27.77
2023-01-29T07:43:10.833Z,25.70
2023-01-29T07:45:40.401Z,29.63
2023-01-29T07:48:10.929Z,26.42
2023-01-29T07:50:39.267Z,27.55
2023-01-29T07:53:07.090Z,27.58
2023-01-29T07:55:36.305Z,30.90
2023-01-29T07:58:05.042Z,28.25
2023-01-29T08:00:33.345Z,28.15
2023-01-29T08:03:04.797Z,28.48
2023-01-29T08:05:32.808Z,27.70
2023-01-29T08:08:06.892Z,29.23
2023-01-29T08:10:36.795Z,28.65
2023-01-29T08:13:05.543Z,28.00
2023-01-29T08:15:33.948Z,30.80
2023-01-29T08:18:02.560Z,29.95
2023-01-29T08:20:30.550Z,27.83
2023-01-29T08:23:02.149Z,31.67
2023-01-29T08:25:30.576Z,27.75
2023-01-29T08:28:01.177Z,31.75
2023-01-29T08:30:30.535Z,30.50
2023-01-29T08:32:58.453Z,27.17
2023-01-29T08:35:26.636Z,27.88
2023-01-29T08:37:55.639Z,26.23
2023-01-29T08:40:23.470Z,31.40
2023-01-29T08:42:51.210Z,28.88
2023-01-29T08:45:20.335Z,27.52
2023-01-29T08:47:48.981Z,27.92
2023-01-29T08:50:17.657Z,25.98
2023-01-29T08:52:46.192Z,27.27
2023-01-29T08:55:14.996Z,27.67
2023-01-29T08:57:42.887Z,27.00
2023-01-29T09:00:13.126Z,27.90
2023-01-29T09:02:42.240Z,28.40
2023-01-29T09:05:10.709Z,27.15
2023-01-29T09:07:38.470Z,26.58
2023-01-29T09:10:07.110Z,25.92
2023-01-29T09:12:34.888Z,25.45
2023-01-29T09:15:02.644Z,28.15
2023-01-29T09:17:30.360Z,27.42
2023-01-29T09:19:59.410Z,26.92
2023-01-29T09:22:27.192Z,26.55
2023-01-29T09:24:54.930Z,28.90
2023-01-29T09:27:22.648Z,27.55
2023-01-29T09:29:50.389Z,25.25
2023-01-29T09:32:37.641Z,24.90
2023-01-29T09:35:08.070Z,25.92
2023-01-29T09:37:36.026Z,26.08
2023-01-29T09:40:03.812Z,26.60
2023-01-29T09:42:39.305Z,25.00
2023-01-29T09:45:13.838Z,24.95
2023-01-29T09:47:41.815Z,26.95
2023-01-29T09:50:19.990Z,27.92
2023-01-29T09:52:53.775Z,26.65
2023-01-29T09:55:26.063Z,26.33
2023-01-29T09:57:57.071Z,28.58
2023-01-29T10:00:29.536Z,28.23
2023-01-29T10:03:18.996Z,25.92
2023-01-29T10:06:04.941Z,25.60
2023-01-29T10:08:56.832Z,27.08
2023-01-29T10:11:34.184Z,25.85
2023-01-29T10:14:13.091Z,25.63
2023-01-29T10:16:52.884Z,28.80
2023-01-29T10:19:42.126Z,26.13
2023-01-29T10:22:31.805Z,25.40
2023-01-29T10:25:03.440Z,25.25
2023-01-29T10:27:35.052Z,27.95
2023-01-29T10:30:09.500Z,26.40
2023-01-29T10:32:38.571Z,31.23
2023-01-29T10:35:21.440Z,27.90
2023-01-29T10:37:54.237Z,26.67
2023-01-29T10:40:24.925Z,28.77
2023-01-29T10:43:01.487Z,27.45
2023-01-29T10:45:38.276Z,24.17
2023-01-29T10:48:45.575Z,24.52
2023-01-29T10:51:26.843Z,26.63
2023-01-29T10:54:10.572Z,25.88
2023-01-29T10:56:55.653Z,24.88
2023-01-29T10:59:40.480Z,25.13
2023-01-29T11:02:17.821Z,24.13
2023-01-29T11:04:46.159Z,28.05
2023-01-29T11:07:16.114Z,23.15
2023-01-29T11:09:49.938Z,24.58
2023-01-29T11:12:21.728Z,23.80
2023-01-29T11:14:54.752Z,24.13
2023-01-29T11:17:24.962Z,23.15
2023-01-29T11:19:55.628Z,25.58
2023-01-29T11:22:24.567Z,27.80
2023-01-29T11:25:10.902Z,24.52
2023-01-29T11:27:45.090Z,23.48
2023-01-29T11:30:20.742Z,24.63
2023-01-29T11:32:52.849Z,24.60
2023-01-29T11:35:26.583Z,25.60
2023-01-29T11:37:54.296Z,26.60
2023-01-29T11:40:38.871Z,21.98
2023-01-29T11:43:18.841Z,22.88
2023-01-29T11:45:47.671Z,24.80
2023-01-29T11:48:17.814Z,22.33
2023-01-29T11:50:53.008Z,24.02
2023-01-29T11:53:32.720Z,23.15
2023-01-29T11:56:04.041Z,24.90
2023-01-29T11:58:35.716Z,28.35
2023-01-29T12:01:04.763Z,25.55
2023-01-29T12:03:36.988Z,23.60
2023-01-29T12:06:08.184Z,27.55
2023-01-29T12:08:39.102Z,23.52
2023-01-29T12:11:13.723Z,23.73
2023-01-29T12:13:43.746Z,23.77
2023-01-29T12:16:20.202Z,21.15
2023-01-29T12:18:52.496Z,25.88
2023-01-29T12:21:27.097Z,24.73
2023-01-29T12:24:02.469Z,23.08
2023-01-29T12:26:35.250Z,24.80
2023-01-29T12:29:19.148Z,22.75
2023-01-29T12:31:54.637Z,22.98
2023-01-29T12:34:31.942Z,23.33
2023-01-29T12:37:04.284Z,21.85
2023-01-29T12:39:32.543Z,25.48
2023-01-29T12:42:06.250Z,21.13
2023-01-29T12:44:42.097Z,26.85
2023-01-29T12:47:17.178Z,21.38
2023-01-29T12:49:50.965Z,22.83
2023-01-29T12:52:23.780Z,24.23
2023-01-29T12:54:56.389Z,21.88
2023-01-29T12:57:36.074Z,23.20
2023-01-29T13:00:08.850Z,24.58
2023-01-29T13:02:41.023Z,24.63
2023-01-29T13:05:20.624Z,24.05
2023-01-29T13:07:52.534Z,23.88
2023-01-29T13:10:24.208Z,24.40
2023-01-29T13:13:00.867Z,25.80
2023-01-29T13:15:34.241Z,23.15
2023-01-29T13:18:21.639Z,23.20
2023-01-29T13:20:50.792Z,21.27
2023-01-29T13:23:22.768Z,23.05
2023-01-29T13:25:54.691Z,21.38
2023-01-29T13:28:26.602Z,23.83
2023-01-29T13:31:19.150Z,24.80
2023-01-29T13:33:55.133Z,22.98
2023-01-29T13:36:27.412Z,21.63
2023-01-29T13:39:01.250Z,24.15
2023-01-29T13:41:41.577Z,24.20
2023-01-29T13:44:22.076Z,22.00
2023-01-29T13:46:52.742Z,23.00
2023-01-29T13:49:28.747Z,21.50
2023-01-29T13:51:56.735Z,21.70
2023-01-29T13:54:27.277Z,22.17
2023-01-29T13:57:00.506Z,19.15
2023-01-29T13:59:53.211Z,22.40
2023-01-29T14:02:25.968Z,22.92
2023-01-29T14:05:32.113Z,20.95
2023-01-29T14:08:01.193Z,20.83
2023-01-29T14:10:30.557Z,29.67
2023-01-29T14:13:28.032Z,21.45
2023-01-29T14:16:43.794Z,26.63
2023-01-29T14:19:20.408Z,29.10
2023-01-29T14:21:51.592Z,25.60
2023-01-29T14:24:22.208Z,21.55
2023-01-29T14:26:54.943Z,21.48
2023-01-29T14:29:34.148Z,23.83
2023-01-29T14:32:13.178Z,21.33
2023-01-29T14:34:47.604Z,24.73
2023-01-29T14:37:23.001Z,23.60
2023-01-29T14:39:52.714Z,21.85
2023-01-29T14:42:25.493Z,20.38
2023-01-29T14:45:08.251Z,24.55
2023-01-29T14:48:21.080Z,19.60
2023-01-29T14:50:53.997Z,22.02
2023-01-29T14:53:28.663Z,22.88
2023-01-29T14:56:00.725Z,25.85
2023-01-29T14:58:39.635Z,19.55
2023-01-29T15:01:16.683Z,23.48
2023-01-29T15:06:21.111Z,22.88
2023-01-29T15:08:56.536Z,22.63
2023-01-29T15:11:36.608Z,22.58
2023-01-29T15:14:15.617Z,20.40
2023-01-29T15:16:53.060Z,23.00
2023-01-29T15:19:27.219Z,23.08
2023-01-29T15:22:14.737Z,21.95
2023-01-29T15:27:16.913Z,21.15
2023-01-29T15:29:48.897Z,20.38
2023-01-29T15:32:31.146Z,22.13
2023-01-29T15:35:00.403Z,23.63
2023-01-29T15:37:32.516Z,20.83
2023-01-29T15:40:04.212Z,20.20
2023-01-29T15:42:44.653Z,21.15
2023-01-29T15:45:28.399Z,21.05
2023-01-29T15:48:01.105Z,24.27
2023-01-29T15:50:30.288Z,24.52
2023-01-29T15:53:03.700Z,19.88
2023-01-29T15:55:32.727Z,23.27
2023-01-29T15:58:01.330Z,21.55
2023-01-29T16:00:30.636Z,21.05
2023-01-29T16:03:00.668Z,19.95
2023-01-29T16:05:30.563Z,21.55
2023-01-29T16:08:01.174Z,24.27
2023-01-29T16:10:31.916Z,20.10
2023-01-29T16:13:00.223Z,19.80
2023-01-29T16:15:34.512Z,17.92
2023-01-29T16:18:05.415Z,21.63
2023-01-29T16:20:37.410Z,19.85
2023-01-29T16:23:08.050Z,21.08
2023-01-29T16:25:39.811Z,18.92
2023-01-29T16:28:11.025Z,18.27
2023-01-29T16:30:39.979Z,18.88
2023-01-29T16:33:13.003Z,21.52
2023-01-29T16:35:41.482Z,23.40
2023-01-29T16:38:25.094Z,20.52
2023-01-29T16:41:07.197Z,18.38
2023-01-29T16:43:50.207Z,19.05
2023-01-29T16:46:22.435Z,17.60
2023-01-29T16:48:50.162Z,18.88
2023-01-29T16:51:24.633Z,18.88
2023-01-29T16:54:09.112Z,19.27
2023-01-29T16:56:39.116Z,21.13
2023-01-29T16:59:07.868Z,18.63
2023-01-29T17:01:37.445Z,18.63
2023-01-29T17:04:09.991Z,19.00
2023-01-29T17:06:38.981Z,18.90
2023-01-29T17:09:08.270Z,20.92
2023-01-29T17:11:39.228Z,20.23
2023-01-29T17:14:08.654Z,19.90
2023-01-29T17:16:47.547Z,20.67
2023-01-29T17:19:20.872Z,17.77
2023-01-29T17:21:48.789Z,19.17
2023-01-29T17:24:17.916Z,17.33
2023-01-29T17:26:45.873Z,20.25
2023-01-29T17:29:16.507Z,19.52
2023-01-29T17:31:44.499Z,18.85
2023-01-29T17:34:14.367Z,18.00
2023-01-29T17:36:42.143Z,19.88
2023-01-29T17:39:19.183Z,15.65
2023-01-29T17:44:16.263Z,18.02
2023-01-29T17:46:44.083Z,17.35
2023-01-29T17:49:21.642Z,20.48
2023-01-29T17:51:50.408Z,19.05
2023-01-29T17:54:19.953Z,20.30
2023-01-29T17:56:47.848Z,22.17
2023-01-29T17:59:16.521Z,20.75
2023-01-29T18:01:45.083Z,17.23
2023-01-29T18:04:13.521Z,17.13
2023-01-29T18:06:43.049Z,17.13
2023-01-29T18:09:14.212Z,17.17
2023-01-29T18:11:44.304Z,16.73
2023-01-29T18:14:13.918Z,16.02
2023-01-29T18:16:43.140Z,14.93
2023-01-29T18:19:15.491Z,17.35
2023-01-29T18:21:43.266Z,18.15
2023-01-29T18:24:11.151Z,19.55
2023-01-29T18:26:39.507Z,17.85
2023-01-29T18:29:09.328Z,18.27
2023-01-29T18:31:37.120Z,20.55
2023-01-29T18:34:04.889Z,17.95
2023-01-29T18:36:32.608Z,16.35
2023-01-29T18:39:00.368Z,16.67
2023-01-29T18:41:28.110Z,18.05
2023-01-29T18:43:55.893Z,20.45
2023-01-29T18:46:25.141Z,21.23
2023-01-29T18:48:52.931Z,17.05
2023-01-29T18:51:20.736Z,19.65
2023-01-29T18:53:51.593Z,19.67
2023-01-29T18:56:19.803Z,22.98
2023-01-29T18:58:52.453Z,19.45
2023-01-29T19:01:27.177Z,19.77
2023-01-29T19:03:56.063Z,18.27
2023-01-29T19:06:23.800Z,18.40
2023-01-29T19:08:51.716Z,17.52
2023-01-29T19:11:19.523Z,20.27
2023-01-29T19:13:48.030Z,21.13
2023-01-29T19:16:15.789Z,18.27
2023-01-29T19:18:44.871Z,19.38
2023-01-29T19:21:14.498Z,21.15
2023-01-29T19:23:43.083Z,20.55
2023-01-29T19:26:11.504Z,22.15
2023-01-29T19:28:39.362Z,21.30
2023-01-29T19:31:07.223Z,20.73
2023-01-29T19:33:34.976Z,20.45
2023-01-29T19:36:04.167Z,19.67
2023-01-29T19:38:33.576Z,22.05
2023-01-29T19:41:01.328Z,19.85
2023-01-29T19:43:30.411Z,20.17
2023-01-29T19:45:59.606Z,22.52
2023-01-29T19:48:27.674Z,19.58
2023-01-29T19:50:57.083Z,20.25
2023-01-29T19:53:28.185Z,22.13
2023-01-29T19:55:59.903Z,22.17
2023-01-29T19:58:28.343Z,19.52
2023-01-29T20:00:59.340Z,20.42
2023-01-29T20:03:28.883Z,19.73
2023-01-29T20:05:57.277Z,24.30
2023-01-29T20:08:26.338Z,23.60
2023-01-29T20:10:54.109Z,23.73
2023-01-29T20:13:21.953Z,22.80
2023-01-29T20:15:51.755Z,23.33
2023-01-29T20:18:19.988Z,22.55
2023-01-29T20:20:49.495Z,20.80
2023-01-29T20:23:31.833Z,22.98
2023-01-29T20:26:06.481Z,23.90
2023-01-29T20:28:34.554Z,28.90
2023-01-29T20:31:02.354Z,25.40
2023-01-29T20:33:30.203Z,23.80
2023-01-29T20:35:59.681Z,24.63
2023-01-29T20:38:30.533Z,27.58
2023-01-29T20:41:05.563Z,21.60
2023-01-29T20:43:33.569Z,24.63
2023-01-29T20:46:02.308Z,21.48
2023-01-29T20:48:30.845Z,23.35
2023-01-29T20:51:03.765Z,23.52
2023-01-29T20:53:31.529Z,21.95
2023-01-29T20:55:59.238Z,21.35
2023-01-29T20:58:28.572Z,26.00
2023-01-29T21:00:56.310Z,24.63
2023-01-29T21:03:24.095Z,23.60
2023-01-29T21:05:52.311Z,26.48
2023-01-29T21:08:20.126Z,27.77
2023-01-29T21:10:50.532Z,24.73
2023-01-29T21:13:18.284Z,25.70
2023-01-29T21:15:47.367Z,22.70
2023-01-29T21:18:15.048Z,21.70
2023-01-29T21:20:42.802Z,28.17
2023-01-29T21:23:10.660Z,21.38
2023-01-29T21:25:39.579Z,23.73
2023-01-29T21:28:07.344Z,24.33
2023-01-29T21:30:35.611Z,23.05
2023-01-29T21:33:05.181Z,25.27
2023-01-29T21:35:33.352Z,26.30
2023-01-29T21:38:01.071Z,21.83
2023-01-29T21:40:30.518Z,23.88
2023-01-29T21:43:13.577Z,20.38
2023-01-29T21:45:41.794Z,23.10
2023-01-29T21:48:12.015Z,24.55
2023-01-29T21:50:39.987Z,22.90
2023-01-29T21:53:07.884Z,23.13
2023-01-29T21:55:35.649Z,26.05
2023-01-29T21:58:04.360Z,23.73
2023-01-29T22:00:32.128Z,24.67
2023-01-29T22:02:59.981Z,25.70
2023-01-29T22:05:30.127Z,24.15
2023-01-29T22:07:57.958Z,25.27
2023-01-29T22:10:25.853Z,25.80
2023-01-29T22:12:53.865Z,24.33
2023-01-29T22:15:23.619Z,28.25
2023-01-29T22:17:52.009Z,27.48
2023-01-29T22:20:20.549Z,26.38
2023-01-29T22:22:49.711Z,24.05
2023-01-29T22:25:20.105Z,25.42
2023-01-29T22:27:47.873Z,24.17
2023-01-29T22:30:16.143Z,23.63
2023-01-29T22:32:44.155Z,25.92
2023-01-29T22:35:11.883Z,24.13
2023-01-29T22:37:39.573Z,25.58
2023-01-29T22:40:10.415Z,24.38
2023-01-29T22:42:38.126Z,23.73
2023-01-29T22:45:06.617Z,28.10
2023-01-29T22:47:34.522Z,23.35
2023-01-29T22:50:02.267Z,25.55
2023-01-29T22:52:38.217Z,27.20
2023-01-29T22:55:10.087Z,26.13
2023-01-29T22:57:38.249Z,26.67
2023-01-29T23:00:08.786Z,23.15
2023-01-29T23:02:36.585Z,26.30
2023-01-29T23:05:04.800Z,27.90
2023-01-29T23:07:32.586Z,25.52
2023-01-29T23:10:00.276Z,24.10
2023-01-29T23:12:29.340Z,24.30
2023-01-29T23:14:57.110Z,24.42
2023-01-29T23:17:25.011Z,24.30
2023-01-29T23:19:52.767Z,22.33
2023-01-29T23:22:20.467Z,23.30
2023-01-29T23:24:48.192Z,21.65
2023-01-29T23:27:15.149Z,23.70
2023-01-29T23:29:45.149Z,21.90
2023-01-29T23:32:17.521Z,24.40
2023-01-29T23:34:45.264Z,30.25
2023-01-29T23:37:13.151Z,23.60
2023-01-29T23:39:40.827Z,28.00
2023-01-29T23:42:08.517Z,25.20
2023-01-29T23:44:36.665Z,23.38
2023-01-29T23:47:05.871Z,25.48
2023-01-29T23:49:33.614Z,23.92
2023-01-29T23:52:01.486Z,24.17
2023-01-29T23:54:29.207Z,21.15
2023-01-29T23:56:56.996Z,22.25
2023-01-29T23:59:28.014Z,24.30
